03:52
Airports
Links
Donate
Help keep this website running!
PayPal
Bitcoin
METAR
KJFK 170251Z 33015G20KT 10SM FEW050 09/M01 A3020 RMK AO2 SLP227 T00941006 51022
Current Weather Conditions at KJFK
VFR 02:51:00 17-10-17
Automated station
Altimeter:30.20 hg
Temp:9.4°c 48°f
Dew point:-0.6°c 32°f
Wind:15 knots, 17.3 mph, 8 m/s, from 330°
Visibility:10.0 statute miles
5000(FEW) A few
Past METAR reports
VFR 01:51:00 17-10-17
Automated station
Altimeter:30.19 hg
Temp:10.6°c 50°f
Dew point:0.6°c 32°f
Wind:13 knots, 15 mph, 7 m/s, from 340°
Visibility:10.0 statute miles
25000(FEW) A few
5000(FEW) A few
KJFK 170151Z 34013KT 10SM FEW050 FEW250 11/01 A3019 RMK AO2 SLP222 T01060006
VFR 00:51:00 17-10-17
Automated station
Altimeter:30.16 hg
Temp:11.7°c 52°f
Dew point:1.7°c 34°f
Wind:13 knots, 15 mph, 7 m/s, from 340°
Visibility:10.0 statute miles
25000(SCT) Scattered
5000(FEW) A few
KJFK 170051Z 34013G20KT 10SM FEW050 SCT250 12/02 A3016 RMK AO2 SLP212 T01170017
VFR 23:51:00 16-10-17
Automated station
Altimeter:30.14 hg
Temp:12.8°c 54°f
Dew point:1.7°c 34°f
Wind:16 knots, 18.4 mph, 8 m/s, from 310°
Visibility:10.0 statute miles
25000(BKN) Broken
5000(SCT) Scattered
KJFK 162351Z 31016G25KT 10SM SCT050 BKN250 13/02 A3014 RMK AO2 SLP204 T01280017 10161 20128 53026
VFR 22:51:00 16-10-17
Automated station
Altimeter:30.11 hg
Temp:12.8°c 54°f
Dew point:2.8°c 36°f
Wind:14 knots, 16.1 mph, 7 m/s, from 340°
Visibility:10.0 statute miles
25000(BKN) Broken
4300(SCT) Scattered
KJFK 162251Z 34014KT 10SM SCT043 BKN250 13/03 A3011 RMK AO2 SLP194 T01280028
TAF
KJFK 170230Z 1703/1806 34012KT P6SM FEW050 SCT200 FM170500 36010KT P6SM SKC FM171600 30005KT P6SM SKC FM172000 22006KT P6SM SKC FM180200 25007KT P6SM SKC
Forecast at KJFK
03:00 17-10-17 to 05:00 17-10-17
Wind:12 Knots from 340°
Visibility:6.21 statute miles
5000FEW A few
20000SCT Scattered
FM 05:00 17-10-17 to 16:00 17-10-17
Wind:10 Knots from 360°
Visibility:6.21 statute miles
SKC Clear
FM 16:00 17-10-17 to 20:00 17-10-17
Wind:5 Knots from 300°
Visibility:6.21 statute miles
SKC Clear
FM 20:00 17-10-17 to 02:00 18-10-17
Wind:6 Knots from 220°
Visibility:6.21 statute miles
SKC Clear
FM 02:00 18-10-17 to 06:00 18-10-17
Wind:7 Knots from 250°
Visibility:6.21 statute miles
SKC Clear